sensor_id;sensor_type;location;lat;lon;timestamp;temperature;humidity
81842;DHT22;71284;50.918;7.092;2024-01-11T00:01:58;-2.80;51.00
81842;DHT22;71284;50.918;7.092;2024-01-11T00:04:24;-2.80;51.20
81842;DHT22;71284;50.918;7.092;2024-01-11T00:06:51;-2.80;51.50
81842;DHT22;71284;50.918;7.092;2024-01-11T00:09:17;-2.80;51.00
81842;DHT22;71284;50.918;7.092;2024-01-11T00:11:44;-2.90;51.50
81842;DHT22;71284;50.918;7.092;2024-01-11T00:14:11;-2.90;51.70
81842;DHT22;71284;50.918;7.092;2024-01-11T00:16:37;-2.90;51.60
81842;DHT22;71284;50.918;7.092;2024-01-11T00:19:04;-2.80;51.50
81842;DHT22;71284;50.918;7.092;2024-01-11T00:21:30;-2.80;51.60
81842;DHT22;71284;50.918;7.092;2024-01-11T00:23:57;-2.90;51.20
81842;DHT22;71284;50.918;7.092;2024-01-11T00:26:24;-2.80;51.10
81842;DHT22;71284;50.918;7.092;2024-01-11T00:28:50;-2.90;51.10
81842;DHT22;71284;50.918;7.092;2024-01-11T00:31:17;-2.80;50.80
81842;DHT22;71284;50.918;7.092;2024-01-11T00:33:43;-2.70;50.50
81842;DHT22;71284;50.918;7.092;2024-01-11T00:36:10;-2.90;50.60
81842;DHT22;71284;50.918;7.092;2024-01-11T00:38:37;-2.90;51.10
81842;DHT22;71284;50.918;7.092;2024-01-11T00:41:03;-3.10;51.30
81842;DHT22;71284;50.918;7.092;2024-01-11T00:43:30;-3.20;51.50
81842;DHT22;71284;50.918;7.092;2024-01-11T00:45:57;-3.00;51.10
81842;DHT22;71284;50.918;7.092;2024-01-11T00:48:23;-3.10;51.20
81842;DHT22;71284;50.918;7.092;2024-01-11T00:50:50;-3.10;51.30
81842;DHT22;71284;50.918;7.092;2024-01-11T00:53:17;-3.00;50.70
81842;DHT22;71284;50.918;7.092;2024-01-11T00:55:43;-3.00;50.80
81842;DHT22;71284;50.918;7.092;2024-01-11T00:58:10;-3.10;51.20
81842;DHT22;71284;50.918;7.092;2024-01-11T01:00:36;-3.10;50.90
81842;DHT22;71284;50.918;7.092;2024-01-11T01:03:03;-3.00;50.60
81842;DHT22;71284;50.918;7.092;2024-01-11T01:05:30;-3.00;50.50
81842;DHT22;71284;50.918;7.092;2024-01-11T01:07:57;-3.10;51.30
81842;DHT22;71284;50.918;7.092;2024-01-11T01:10:24;-3.20;51.40
81842;DHT22;71284;50.918;7.092;2024-01-11T01:12:50;-3.30;51.70
81842;DHT22;71284;50.918;7.092;2024-01-11T01:15:17;-3.50;52.20
81842;DHT22;71284;50.918;7.092;2024-01-11T01:17:43;-3.50;52.40
81842;DHT22;71284;50.918;7.092;2024-01-11T01:20:10;-3.40;51.80
81842;DHT22;71284;50.918;7.092;2024-01-11T01:22:37;-3.30;51.70
81842;DHT22;71284;50.918;7.092;2024-01-11T01:25:04;-3.30;51.40
81842;DHT22;71284;50.918;7.092;2024-01-11T01:27:31;-3.30;51.80
81842;DHT22;71284;50.918;7.092;2024-01-11T01:29:58;-3.30;51.30
81842;DHT22;71284;50.918;7.092;2024-01-11T01:32:24;-3.50;51.70
81842;DHT22;71284;50.918;7.092;2024-01-11T01:34:51;-3.70;52.60
81842;DHT22;71284;50.918;7.092;2024-01-11T01:37:17;-3.70;52.80
81842;DHT22;71284;50.918;7.092;2024-01-11T01:39:44;-3.60;52.30
81842;DHT22;71284;50.918;7.092;2024-01-11T01:42:11;-3.50;52.20
81842;DHT22;71284;50.918;7.092;2024-01-11T01:44:37;-3.50;52.10
81842;DHT22;71284;50.918;7.092;2024-01-11T01:47:04;-3.50;51.90
81842;DHT22;71284;50.918;7.092;2024-01-11T01:49:30;-3.60;52.10
81842;DHT22;71284;50.918;7.092;2024-01-11T01:51:57;-3.50;52.00
81842;DHT22;71284;50.918;7.092;2024-01-11T01:54:24;-3.40;52.00
81842;DHT22;71284;50.918;7.092;2024-01-11T01:56:50;-3.50;51.80
81842;DHT22;71284;50.918;7.092;2024-01-11T01:59:17;-3.50;52.10
81842;DHT22;71284;50.918;7.092;2024-01-11T02:01:44;-3.40;51.70
81842;DHT22;71284;50.918;7.092;2024-01-11T02:04:11;-3.40;51.30
81842;DHT22;71284;50.918;7.092;2024-01-11T02:06:37;-3.50;52.10
81842;DHT22;71284;50.918;7.092;2024-01-11T02:09:04;-3.40;51.40
81842;DHT22;71284;50.918;7.092;2024-01-11T02:11:31;-3.40;52.10
81842;DHT22;71284;50.918;7.092;2024-01-11T02:13:57;-3.60;52.20
81842;DHT22;71284;50.918;7.092;2024-01-11T02:16:24;-3.50;52.00
81842;DHT22;71284;50.918;7.092;2024-01-11T02:18:50;-3.60;51.70
81842;DHT22;71284;50.918;7.092;2024-01-11T02:21:17;-3.70;51.80
81842;DHT22;71284;50.918;7.092;2024-01-11T02:23:44;-3.50;51.60
81842;DHT22;71284;50.918;7.092;2024-01-11T02:26:13;-3.60;51.50
81842;DHT22;71284;50.918;7.092;2024-01-11T02:28:43;-3.70;52.10
81842;DHT22;71284;50.918;7.092;2024-01-11T02:31:06;-3.70;52.60
81842;DHT22;71284;50.918;7.092;2024-01-11T02:33:33;-3.70;52.20
81842;DHT22;71284;50.918;7.092;2024-01-11T02:35:59;-3.80;52.40
81842;DHT22;71284;50.918;7.092;2024-01-11T02:38:26;-3.70;52.10
81842;DHT22;71284;50.918;7.092;2024-01-11T02:40:53;-3.70;52.50
81842;DHT22;71284;50.918;7.092;2024-01-11T02:43:19;-3.70;51.70
81842;DHT22;71284;50.918;7.092;2024-01-11T02:45:46;-3.70;51.70
81842;DHT22;71284;50.918;7.092;2024-01-11T02:48:12;-3.80;51.40
81842;DHT22;71284;50.918;7.092;2024-01-11T02:50:41;-3.90;52.10
81842;DHT22;71284;50.918;7.092;2024-01-11T02:53:07;-3.90;52.00
81842;DHT22;71284;50.918;7.092;2024-01-11T02:55:34;-3.90;52.10
81842;DHT22;71284;50.918;7.092;2024-01-11T02:58:00;-4.30;53.20
81842;DHT22;71284;50.918;7.092;2024-01-11T03:00:27;-4.30;53.70
81842;DHT22;71284;50.918;7.092;2024-01-11T03:02:54;-4.10;52.80
81842;DHT22;71284;50.918;7.092;2024-01-11T03:05:21;-3.90;52.90
81842;DHT22;71284;50.918;7.092;2024-01-11T03:07:48;-4.00;52.60
81842;DHT22;71284;50.918;7.092;2024-01-11T03:10:14;-3.90;52.20
81842;DHT22;71284;50.918;7.092;2024-01-11T03:12:41;-3.80;51.90
81842;DHT22;71284;50.918;7.092;2024-01-11T03:15:08;-3.80;52.00
81842;DHT22;71284;50.918;7.092;2024-01-11T03:17:34;-3.80;51.80
81842;DHT22;71284;50.918;7.092;2024-01-11T03:20:01;-3.80;52.30
81842;DHT22;71284;50.918;7.092;2024-01-11T03:22:28;-3.80;51.40
81842;DHT22;71284;50.918;7.092;2024-01-11T03:24:55;-3.80;51.80
81842;DHT22;71284;50.918;7.092;2024-01-11T03:27:22;-3.90;52.20
81842;DHT22;71284;50.918;7.092;2024-01-11T03:29:48;-3.90;52.20
81842;DHT22;71284;50.918;7.092;2024-01-11T03:32:15;-3.90;51.80
81842;DHT22;71284;50.918;7.092;2024-01-11T03:34:41;-3.90;51.80
81842;DHT22;71284;50.918;7.092;2024-01-11T03:37:08;-4.10;52.30
81842;DHT22;71284;50.918;7.092;2024-01-11T03:39:34;-4.00;52.30
81842;DHT22;71284;50.918;7.092;2024-01-11T03:42:01;-4.00;52.00
81842;DHT22;71284;50.918;7.092;2024-01-11T03:44:28;-3.90;52.00
81842;DHT22;71284;50.918;7.092;2024-01-11T03:46:54;-3.80;51.50
81842;DHT22;71284;50.918;7.092;2024-01-11T03:49:21;-3.80;51.80
81842;DHT22;71284;50.918;7.092;2024-01-11T03:51:48;-3.80;52.60
81842;DHT22;71284;50.918;7.092;2024-01-11T03:54:15;-3.80;52.60
81842;DHT22;71284;50.918;7.092;2024-01-11T03:56:41;-3.70;51.80
81842;DHT22;71284;50.918;7.092;2024-01-11T03:59:08;-3.80;51.70
81842;DHT22;71284;50.918;7.092;2024-01-11T04:01:38;-3.80;51.60
81842;DHT22;71284;50.918;7.092;2024-01-11T04:04:01;-3.80;51.80
81842;DHT22;71284;50.918;7.092;2024-01-11T04:06:28;-3.90;51.90
81842;DHT22;71284;50.918;7.092;2024-01-11T04:08:54;-4.00;52.60
81842;DHT22;71284;50.918;7.092;2024-01-11T04:11:21;-3.90;51.40
81842;DHT22;71284;50.918;7.092;2024-01-11T04:13:48;-3.90;51.40
81842;DHT22;71284;50.918;7.092;2024-01-11T04:16:14;-3.90;51.30
81842;DHT22;71284;50.918;7.092;2024-01-11T04:18:41;-3.90;51.10
81842;DHT22;71284;50.918;7.092;2024-01-11T04:21:07;-4.00;51.10
81842;DHT22;71284;50.918;7.092;2024-01-11T04:23:34;-4.10;51.90
81842;DHT22;71284;50.918;7.092;2024-01-11T04:26:00;-4.10;52.30
81842;DHT22;71284;50.918;7.092;2024-01-11T04:28:27;-4.00;51.90
81842;DHT22;71284;50.918;7.092;2024-01-11T04:30:54;-4.10;51.70
81842;DHT22;71284;50.918;7.092;2024-01-11T04:33:20;-4.20;52.50
81842;DHT22;71284;50.918;7.092;2024-01-11T04:35:47;-4.20;52.30
81842;DHT22;71284;50.918;7.092;2024-01-11T04:38:13;-4.10;51.90
81842;DHT22;71284;50.918;7.092;2024-01-11T04:40:40;-4.20;52.00
81842;DHT22;71284;50.918;7.092;2024-01-11T04:43:07;-4.10;51.90
81842;DHT22;71284;50.918;7.092;2024-01-11T04:45:33;-4.10;51.50
81842;DHT22;71284;50.918;7.092;2024-01-11T04:48:00;-4.00;51.20
81842;DHT22;71284;50.918;7.092;2024-01-11T04:50:26;-4.10;51.90
81842;DHT22;71284;50.918;7.092;2024-01-11T04:52:54;-4.10;51.90
81842;DHT22;71284;50.918;7.092;2024-01-11T04:55:21;-4.20;51.60
81842;DHT22;71284;50.918;7.092;2024-01-11T04:57:47;-4.10;51.50
81842;DHT22;71284;50.918;7.092;2024-01-11T05:00:14;-4.20;51.30
81842;DHT22;71284;50.918;7.092;2024-01-11T05:02:41;-4.10;51.40
81842;DHT22;71284;50.918;7.092;2024-01-11T05:05:08;-4.20;50.70
81842;DHT22;71284;50.918;7.092;2024-01-11T05:07:34;-4.20;50.50
81842;DHT22;71284;50.918;7.092;2024-01-11T05:10:01;-4.20;50.50
81842;DHT22;71284;50.918;7.092;2024-01-11T05:12:28;-4.20;50.60
81842;DHT22;71284;50.918;7.092;2024-01-11T05:14:55;-4.20;50.90
81842;DHT22;71284;50.918;7.092;2024-01-11T05:17:21;-4.20;50.50
81842;DHT22;71284;50.918;7.092;2024-01-11T05:19:48;-4.40;50.60
81842;DHT22;71284;50.918;7.092;2024-01-11T05:22:14;-4.30;50.90
81842;DHT22;71284;50.918;7.092;2024-01-11T05:24:41;-4.40;50.50
81842;DHT22;71284;50.918;7.092;2024-01-11T05:27:08;-4.50;50.80
81842;DHT22;71284;50.918;7.092;2024-01-11T05:29:34;-4.40;50.60
81842;DHT22;71284;50.918;7.092;2024-01-11T05:32:01;-4.40;50.10
81842;DHT22;71284;50.918;7.092;2024-01-11T05:34:27;-4.40;50.00
81842;DHT22;71284;50.918;7.092;2024-01-11T05:36:54;-4.50;51.10
81842;DHT22;71284;50.918;7.092;2024-01-11T05:39:21;-4.60;51.20
81842;DHT22;71284;50.918;7.092;2024-01-11T05:41:48;-4.70;51.10
81842;DHT22;71284;50.918;7.092;2024-01-11T05:44:15;-4.60;50.70
81842;DHT22;71284;50.918;7.092;2024-01-11T05:46:41;-4.70;51.30
81842;DHT22;71284;50.918;7.092;2024-01-11T05:49:08;-4.60;51.50
81842;DHT22;71284;50.918;7.092;2024-01-11T05:51:35;-4.60;50.70
81842;DHT22;71284;50.918;7.092;2024-01-11T05:54:01;-4.40;50.00
81842;DHT22;71284;50.918;7.092;2024-01-11T05:56:28;-4.50;49.70
81842;DHT22;71284;50.918;7.092;2024-01-11T05:58:55;-4.50;50.20
81842;DHT22;71284;50.918;7.092;2024-01-11T06:01:21;-4.50;50.00
81842;DHT22;71284;50.918;7.092;2024-01-11T06:03:48;-4.80;50.50
81842;DHT22;71284;50.918;7.092;2024-01-11T06:06:14;-4.80;50.40
81842;DHT22;71284;50.918;7.092;2024-01-11T06:08:41;-4.70;50.30
81842;DHT22;71284;50.918;7.092;2024-01-11T06:11:08;-4.70;50.20
81842;DHT22;71284;50.918;7.092;2024-01-11T06:13:34;-4.80;50.70
81842;DHT22;71284;50.918;7.092;2024-01-11T06:16:01;-4.80;51.00
81842;DHT22;71284;50.918;7.092;2024-01-11T06:18:27;-4.70;50.40
81842;DHT22;71284;50.918;7.092;2024-01-11T06:20:54;-4.60;50.50
81842;DHT22;71284;50.918;7.092;2024-01-11T06:23:22;-4.70;50.00
81842;DHT22;71284;50.918;7.092;2024-01-11T06:25:47;-4.60;51.10
81842;DHT22;71284;50.918;7.092;2024-01-11T06:28:14;-4.60;51.30
81842;DHT22;71284;50.918;7.092;2024-01-11T06:30:40;-4.70;50.30
81842;DHT22;71284;50.918;7.092;2024-01-11T06:33:07;-4.70;50.00
81842;DHT22;71284;50.918;7.092;2024-01-11T06:35:33;-4.70;50.50
81842;DHT22;71284;50.918;7.092;2024-01-11T06:38:00;-4.70;50.50
81842;DHT22;71284;50.918;7.092;2024-01-11T06:40:27;-4.70;50.10
81842;DHT22;71284;50.918;7.092;2024-01-11T06:42:53;-4.70;49.50
81842;DHT22;71284;50.918;7.092;2024-01-11T06:45:20;-4.60;49.20
81842;DHT22;71284;50.918;7.092;2024-01-11T06:47:46;-4.80;50.30
81842;DHT22;71284;50.918;7.092;2024-01-11T06:50:13;-4.90;50.90
81842;DHT22;71284;50.918;7.092;2024-01-11T06:52:40;-4.80;50.00
81842;DHT22;71284;50.918;7.092;2024-01-11T06:55:07;-4.80;49.40
81842;DHT22;71284;50.918;7.092;2024-01-11T06:57:34;-4.70;48.90
81842;DHT22;71284;50.918;7.092;2024-01-11T07:00:01;-4.90;50.60
81842;DHT22;71284;50.918;7.092;2024-01-11T07:02:28;-5.00;49.90
81842;DHT22;71284;50.918;7.092;2024-01-11T07:04:55;-4.90;50.20
81842;DHT22;71284;50.918;7.092;2024-01-11T07:07:21;-5.00;50.20
81842;DHT22;71284;50.918;7.092;2024-01-11T07:09:48;-4.90;50.90
81842;DHT22;71284;50.918;7.092;2024-01-11T07:12:14;-5.10;51.00
81842;DHT22;71284;50.918;7.092;2024-01-11T07:14:42;-5.20;51.00
81842;DHT22;71284;50.918;7.092;2024-01-11T07:17:08;-5.20;51.30
81842;DHT22;71284;50.918;7.092;2024-01-11T07:19:34;-5.10;50.20
81842;DHT22;71284;50.918;7.092;2024-01-11T07:22:01;-5.10;50.70
81842;DHT22;71284;50.918;7.092;2024-01-11T07:24:27;-5.00;50.20
81842;DHT22;71284;50.918;7.092;2024-01-11T07:26:54;-5.10;51.00
81842;DHT22;71284;50.918;7.092;2024-01-11T07:29:21;-5.10;51.20
81842;DHT22;71284;50.918;7.092;2024-01-11T07:31:47;-5.20;51.90
81842;DHT22;71284;50.918;7.092;2024-01-11T07:34:14;-5.30;51.90
81842;DHT22;71284;50.918;7.092;2024-01-11T07:36:41;-5.20;51.60
81842;DHT22;71284;50.918;7.092;2024-01-11T07:39:08;-5.00;51.70
81842;DHT22;71284;50.918;7.092;2024-01-11T07:41:34;-4.80;52.10
81842;DHT22;71284;50.918;7.092;2024-01-11T07:44:01;-4.70;51.10
81842;DHT22;71284;50.918;7.092;2024-01-11T07:46:27;-4.70;51.60
81842;DHT22;71284;50.918;7.092;2024-01-11T07:48:54;-4.60;51.60
81842;DHT22;71284;50.918;7.092;2024-01-11T07:51:21;-4.60;51.70
81842;DHT22;71284;50.918;7.092;2024-01-11T07:53:47;-4.50;51.70
81842;DHT22;71284;50.918;7.092;2024-01-11T07:56:14;-4.40;51.00
81842;DHT22;71284;50.918;7.092;2024-01-11T07:58:41;-4.30;50.80
81842;DHT22;71284;50.918;7.092;2024-01-11T08:01:07;-4.30;50.90
81842;DHT22;71284;50.918;7.092;2024-01-11T08:03:34;-4.30;51.00
81842;DHT22;71284;50.918;7.092;2024-01-11T08:06:01;-4.20;50.30
81842;DHT22;71284;50.918;7.092;2024-01-11T08:08:27;-4.10;50.50
81842;DHT22;71284;50.918;7.092;2024-01-11T08:10:54;-4.10;50.00
81842;DHT22;71284;50.918;7.092;2024-01-11T08:13:20;-4.20;50.30
81842;DHT22;71284;50.918;7.092;2024-01-11T08:15:47;-4.30;50.40
81842;DHT22;71284;50.918;7.092;2024-01-11T08:18:13;-4.20;50.50
81842;DHT22;71284;50.918;7.092;2024-01-11T08:20:40;-4.00;49.40
81842;DHT22;71284;50.918;7.092;2024-01-11T08:23:07;-4.20;49.70
81842;DHT22;71284;50.918;7.092;2024-01-11T08:25:33;-4.20;50.70
81842;DHT22;71284;50.918;7.092;2024-01-11T08:28:00;-4.40;50.70
81842;DHT22;71284;50.918;7.092;2024-01-11T08:30:26;-4.40;51.30
81842;DHT22;71284;50.918;7.092;2024-01-11T08:32:53;-4.50;51.80
81842;DHT22;71284;50.918;7.092;2024-01-11T08:35:19;-4.40;51.80
81842;DHT22;71284;50.918;7.092;2024-01-11T08:37:46;-4.30;51.90
81842;DHT22;71284;50.918;7.092;2024-01-11T08:40:13;-4.20;51.20
81842;DHT22;71284;50.918;7.092;2024-01-11T08:42:39;-4.00;51.30
81842;DHT22;71284;50.918;7.092;2024-01-11T08:45:06;-3.90;51.30
81842;DHT22;71284;50.918;7.092;2024-01-11T08:47:33;-3.90;51.10
81842;DHT22;71284;50.918;7.092;2024-01-11T08:50:00;-3.70;51.10
81842;DHT22;71284;50.918;7.092;2024-01-11T08:52:26;-3.50;51.20
81842;DHT22;71284;50.918;7.092;2024-01-11T08:54:53;-3.30;50.90
81842;DHT22;71284;50.918;7.092;2024-01-11T08:57:20;-3.10;50.80
81842;DHT22;71284;50.918;7.092;2024-01-11T08:59:47;-2.90;49.70
81842;DHT22;71284;50.918;7.092;2024-01-11T09:02:13;-2.70;49.20
81842;DHT22;71284;50.918;7.092;2024-01-11T09:04:40;-2.50;49.30
81842;DHT22;71284;50.918;7.092;2024-01-11T09:07:06;-2.40;49.50
81842;DHT22;71284;50.918;7.092;2024-01-11T09:09:33;-2.50;50.40
81842;DHT22;71284;50.918;7.092;2024-01-11T09:12:00;-2.40;50.40
81842;DHT22;71284;50.918;7.092;2024-01-11T09:14:26;-2.20;50.50
81842;DHT22;71284;50.918;7.092;2024-01-11T09:16:53;-2.10;50.30
81842;DHT22;71284;50.918;7.092;2024-01-11T09:19:19;-1.80;50.20
81842;DHT22;71284;50.918;7.092;2024-01-11T09:21:46;-1.50;49.90
81842;DHT22;71284;50.918;7.092;2024-01-11T09:24:13;-1.40;49.20
81842;DHT22;71284;50.918;7.092;2024-01-11T09:26:39;-1.40;49.20
81842;DHT22;71284;50.918;7.092;2024-01-11T09:29:06;-1.40;49.00
81842;DHT22;71284;50.918;7.092;2024-01-11T09:31:32;-1.40;49.10
81842;DHT22;71284;50.918;7.092;2024-01-11T09:33:59;-1.30;49.30
81842;DHT22;71284;50.918;7.092;2024-01-11T09:36:26;-1.30;50.20
81842;DHT22;71284;50.918;7.092;2024-01-11T09:38:53;-1.10;49.50
81842;DHT22;71284;50.918;7.092;2024-01-11T09:41:19;-1.10;49.60
81842;DHT22;71284;50.918;7.092;2024-01-11T09:43:46;-1.00;49.10
81842;DHT22;71284;50.918;7.092;2024-01-11T09:46:13;-1.00;48.90
81842;DHT22;71284;50.918;7.092;2024-01-11T09:48:40;-0.90;49.20
81842;DHT22;71284;50.918;7.092;2024-01-11T09:51:08;-0.70;49.00
81842;DHT22;71284;50.918;7.092;2024-01-11T09:53:33;-0.70;48.80
81842;DHT22;71284;50.918;7.092;2024-01-11T09:56:00;-0.70;49.10
81842;DHT22;71284;50.918;7.092;2024-01-11T09:58:26;-0.30;48.80
81842;DHT22;71284;50.918;7.092;2024-01-11T10:00:54;0.30;47.60
81842;DHT22;71284;50.918;7.092;2024-01-11T10:03:21;0.70;46.30
81842;DHT22;71284;50.918;7.092;2024-01-11T10:05:47;0.90;45.30
81842;DHT22;71284;50.918;7.092;2024-01-11T10:08:13;0.90;45.40
81842;DHT22;71284;50.918;7.092;2024-01-11T10:10:40;1.10;45.80
81842;DHT22;71284;50.918;7.092;2024-01-11T10:13:06;2.00;43.30
81842;DHT22;71284;50.918;7.092;2024-01-11T10:15:33;2.80;40.90
81842;DHT22;71284;50.918;7.092;2024-01-11T10:18:00;3.20;40.80
81842;DHT22;71284;50.918;7.092;2024-01-11T10:20:27;3.60;39.20
81842;DHT22;71284;50.918;7.092;2024-01-11T10:22:53;3.40;39.80
81842;DHT22;71284;50.918;7.092;2024-01-11T10:25:20;3.80;39.00
81842;DHT22;71284;50.918;7.092;2024-01-11T10:27:46;4.30;37.90
81842;DHT22;71284;50.918;7.092;2024-01-11T10:30:13;4.90;37.90
81842;DHT22;71284;50.918;7.092;2024-01-11T10:32:39;5.90;36.00
81842;DHT22;71284;50.918;7.092;2024-01-11T10:35:06;5.80;35.10
81842;DHT22;71284;50.918;7.092;2024-01-11T10:37:33;6.00;34.60
81842;DHT22;71284;50.918;7.092;2024-01-11T10:40:02;6.10;34.60
81842;DHT22;71284;50.918;7.092;2024-01-11T10:42:26;5.90;34.30
81842;DHT22;71284;50.918;7.092;2024-01-11T10:44:54;5.70;34.70
81842;DHT22;71284;50.918;7.092;2024-01-11T10:47:19;5.40;35.80
81842;DHT22;71284;50.918;7.092;2024-01-11T10:49:46;4.30;37.60
81842;DHT22;71284;50.918;7.092;2024-01-11T10:52:12;4.50;38.00
81842;DHT22;71284;50.918;7.092;2024-01-11T10:54:39;4.80;37.10
81842;DHT22;71284;50.918;7.092;2024-01-11T10:57:05;4.80;36.50
81842;DHT22;71284;50.918;7.092;2024-01-11T10:59:32;4.80;36.90
81842;DHT22;71284;50.918;7.092;2024-01-11T11:02:00;4.30;37.10
81842;DHT22;71284;50.918;7.092;2024-01-11T11:04:25;4.00;38.20
81842;DHT22;71284;50.918;7.092;2024-01-11T11:06:55;3.90;38.60
81842;DHT22;71284;50.918;7.092;2024-01-11T11:09:18;3.30;40.20
81842;DHT22;71284;50.918;7.092;2024-01-11T11:11:45;3.00;40.80
81842;DHT22;71284;50.918;7.092;2024-01-11T11:14:13;2.60;41.70
81842;DHT22;71284;50.918;7.092;2024-01-11T11:16:38;2.60;42.30
81842;DHT22;71284;50.918;7.092;2024-01-11T11:19:05;2.70;42.90
81842;DHT22;71284;50.918;7.092;2024-01-11T11:21:32;3.10;42.40
81842;DHT22;71284;50.918;7.092;2024-01-11T11:23:58;3.80;40.80
81842;DHT22;71284;50.918;7.092;2024-01-11T11:26:25;5.20;39.30
81842;DHT22;71284;50.918;7.092;2024-01-11T11:28:51;6.30;35.70
81842;DHT22;71284;50.918;7.092;2024-01-11T11:31:44;6.90;34.70
81842;DHT22;71284;50.918;7.092;2024-01-11T11:34:11;7.00;34.20
81842;DHT22;71284;50.918;7.092;2024-01-11T11:36:40;7.20;34.20
81842;DHT22;71284;50.918;7.092;2024-01-11T11:39:06;7.80;33.80
81842;DHT22;71284;50.918;7.092;2024-01-11T11:41:33;8.50;31.70
81842;DHT22;71284;50.918;7.092;2024-01-11T11:44:02;8.90;31.70
81842;DHT22;71284;50.918;7.092;2024-01-11T11:46:28;9.40;30.60
81842;DHT22;71284;50.918;7.092;2024-01-11T11:48:54;10.20;29.40
81842;DHT22;71284;50.918;7.092;2024-01-11T11:51:21;9.80;29.90
81842;DHT22;71284;50.918;7.092;2024-01-11T11:53:48;10.10;29.00
81842;DHT22;71284;50.918;7.092;2024-01-11T11:56:15;9.70;29.40
81842;DHT22;71284;50.918;7.092;2024-01-11T11:58:41;8.80;30.50
81842;DHT22;71284;50.918;7.092;2024-01-11T12:01:08;7.90;31.90
81842;DHT22;71284;50.918;7.092;2024-01-11T12:03:36;7.10;34.20
81842;DHT22;71284;50.918;7.092;2024-01-11T12:06:04;6.70;35.00
81842;DHT22;71284;50.918;7.092;2024-01-11T12:08:30;6.90;35.30
81842;DHT22;71284;50.918;7.092;2024-01-11T12:10:56;6.90;34.60
81842;DHT22;71284;50.918;7.092;2024-01-11T12:13:23;7.00;35.10
81842;DHT22;71284;50.918;7.092;2024-01-11T12:15:49;6.80;35.60
81842;DHT22;71284;50.918;7.092;2024-01-11T12:18:16;6.80;35.60
81842;DHT22;71284;50.918;7.092;2024-01-11T12:20:42;6.60;35.30
81842;DHT22;71284;50.918;7.092;2024-01-11T12:23:09;6.60;36.00
81842;DHT22;71284;50.918;7.092;2024-01-11T12:25:36;6.70;35.90
81842;DHT22;71284;50.918;7.092;2024-01-11T12:28:02;6.30;37.00
81842;DHT22;71284;50.918;7.092;2024-01-11T12:30:29;6.20;37.40
81842;DHT22;71284;50.918;7.092;2024-01-11T12:32:56;6.80;36.40
81842;DHT22;71284;50.918;7.092;2024-01-11T12:35:23;7.70;35.10
81842;DHT22;71284;50.918;7.092;2024-01-11T12:37:58;8.30;33.20
81842;DHT22;71284;50.918;7.092;2024-01-11T12:40:25;8.30;33.90
81842;DHT22;71284;50.918;7.092;2024-01-11T12:42:51;8.30;33.10
81842;DHT22;71284;50.918;7.092;2024-01-11T12:45:18;7.50;34.40
81842;DHT22;71284;50.918;7.092;2024-01-11T12:47:44;7.10;35.00
81842;DHT22;71284;50.918;7.092;2024-01-11T12:50:11;7.00;35.00
81842;DHT22;71284;50.918;7.092;2024-01-11T12:52:38;6.90;36.30
81842;DHT22;71284;50.918;7.092;2024-01-11T12:55:07;6.80;36.60
81842;DHT22;71284;50.918;7.092;2024-01-11T12:57:33;7.10;35.90
81842;DHT22;71284;50.918;7.092;2024-01-11T13:00:09;7.50;34.70
81842;DHT22;71284;50.918;7.092;2024-01-11T13:02:35;7.40;34.60
81842;DHT22;71284;50.918;7.092;2024-01-11T13:05:02;8.30;34.30
81842;DHT22;71284;50.918;7.092;2024-01-11T13:07:28;9.90;31.90
81842;DHT22;71284;50.918;7.092;2024-01-11T13:09:55;10.80;30.60
81842;DHT22;71284;50.918;7.092;2024-01-11T13:12:21;11.80;28.60
81842;DHT22;71284;50.918;7.092;2024-01-11T13:14:48;11.80;28.00
81842;DHT22;71284;50.918;7.092;2024-01-11T13:17:14;12.20;29.20
81842;DHT22;71284;50.918;7.092;2024-01-11T13:19:41;12.10;28.10
81842;DHT22;71284;50.918;7.092;2024-01-11T13:22:08;12.80;27.10
81842;DHT22;71284;50.918;7.092;2024-01-11T13:24:34;12.70;26.60
81842;DHT22;71284;50.918;7.092;2024-01-11T13:27:01;12.20;27.70
81842;DHT22;71284;50.918;7.092;2024-01-11T13:29:27;12.50;27.10
81842;DHT22;71284;50.918;7.092;2024-01-11T13:31:54;12.40;27.10
81842;DHT22;71284;50.918;7.092;2024-01-11T13:34:21;12.00;28.40
81842;DHT22;71284;50.918;7.092;2024-01-11T13:36:47;12.40;26.80
81842;DHT22;71284;50.918;7.092;2024-01-11T13:39:14;12.10;27.90
81842;DHT22;71284;50.918;7.092;2024-01-11T13:41:40;12.00;28.10
81842;DHT22;71284;50.918;7.092;2024-01-11T13:44:07;12.90;27.30
81842;DHT22;71284;50.918;7.092;2024-01-11T13:46:34;14.10;25.00
81842;DHT22;71284;50.918;7.092;2024-01-11T13:49:01;13.90;25.10
81842;DHT22;71284;50.918;7.092;2024-01-11T13:51:27;13.20;25.40
81842;DHT22;71284;50.918;7.092;2024-01-11T13:53:54;11.50;27.60
81842;DHT22;71284;50.918;7.092;2024-01-11T13:56:21;10.50;29.60
81842;DHT22;71284;50.918;7.092;2024-01-11T13:58:48;11.00;29.60
81842;DHT22;71284;50.918;7.092;2024-01-11T14:01:15;12.00;27.70
81842;DHT22;71284;50.918;7.092;2024-01-11T14:03:41;12.70;26.90
81842;DHT22;71284;50.918;7.092;2024-01-11T14:06:08;13.10;25.60
81842;DHT22;71284;50.918;7.092;2024-01-11T14:08:35;13.60;25.60
81842;DHT22;71284;50.918;7.092;2024-01-11T14:11:02;14.20;24.90
81842;DHT22;71284;50.918;7.092;2024-01-11T14:13:29;14.00;24.70
81842;DHT22;71284;50.918;7.092;2024-01-11T14:15:56;12.80;25.80
81842;DHT22;71284;50.918;7.092;2024-01-11T14:18:22;11.90;27.50
81842;DHT22;71284;50.918;7.092;2024-01-11T14:20:49;10.90;29.30
81842;DHT22;71284;50.918;7.092;2024-01-11T14:23:15;9.70;31.00
81842;DHT22;71284;50.918;7.092;2024-01-11T14:25:42;8.80;32.90
81842;DHT22;71284;50.918;7.092;2024-01-11T14:28:09;8.10;33.50
81842;DHT22;71284;50.918;7.092;2024-01-11T14:30:35;7.30;34.70
81842;DHT22;71284;50.918;7.092;2024-01-11T14:33:02;6.60;36.40
81842;DHT22;71284;50.918;7.092;2024-01-11T14:35:29;6.20;37.30
81842;DHT22;71284;50.918;7.092;2024-01-11T14:37:56;6.00;37.70
81842;DHT22;71284;50.918;7.092;2024-01-11T14:40:22;5.90;38.50
81842;DHT22;71284;50.918;7.092;2024-01-11T14:42:49;5.60;38.10
81842;DHT22;71284;50.918;7.092;2024-01-11T14:45:16;5.40;39.60
81842;DHT22;71284;50.918;7.092;2024-01-11T14:47:42;5.20;39.80
81842;DHT22;71284;50.918;7.092;2024-01-11T14:50:09;5.00;40.10
81842;DHT22;71284;50.918;7.092;2024-01-11T14:52:35;5.10;39.60
81842;DHT22;71284;50.918;7.092;2024-01-11T14:55:02;5.00;39.80
81842;DHT22;71284;50.918;7.092;2024-01-11T14:57:29;4.90;40.00
81842;DHT22;71284;50.918;7.092;2024-01-11T14:59:55;5.00;39.60
81842;DHT22;71284;50.918;7.092;2024-01-11T15:02:22;5.10;40.10
81842;DHT22;71284;50.918;7.092;2024-01-11T15:04:49;5.10;40.30
81842;DHT22;71284;50.918;7.092;2024-01-11T15:07:15;5.10;40.20
81842;DHT22;71284;50.918;7.092;2024-01-11T15:09:42;5.00;39.40
81842;DHT22;71284;50.918;7.092;2024-01-11T15:12:08;5.00;39.80
81842;DHT22;71284;50.918;7.092;2024-01-11T15:14:35;4.90;40.00
81842;DHT22;71284;50.918;7.092;2024-01-11T15:17:01;4.90;40.00
81842;DHT22;71284;50.918;7.092;2024-01-11T15:19:28;4.90;41.10
81842;DHT22;71284;50.918;7.092;2024-01-11T15:21:55;4.90;41.20
81842;DHT22;71284;50.918;7.092;2024-01-11T15:24:21;4.90;40.50
81842;DHT22;71284;50.918;7.092;2024-01-11T15:26:48;4.70;39.40
81842;DHT22;71284;50.918;7.092;2024-01-11T15:29:14;4.60;39.60
81842;DHT22;71284;50.918;7.092;2024-01-11T15:31:41;4.60;40.60